sensor_id;sensor_type;location;lat;lon;timestamp;P1;durP1;ratioP1;P2;durP2;ratioP2
33690;SDS011;20026;50.058;18.428;2022-11-25T00:01:20;163.27;;;71.38;;
33690;SDS011;20026;50.058;18.428;2022-11-25T00:03:46;153.02;;;70.55;;
33690;SDS011;20026;50.058;18.428;2022-11-25T00:06:14;156.25;;;70.00;;
33690;SDS011;20026;50.058;18.428;2022-11-25T00:08:40;150.25;;;70.85;;
33690;SDS011;20026;50.058;18.428;2022-11-25T00:11:07;159.02;;;71.47;;
33690;SDS011;20026;50.058;18.428;2022-11-25T00:13:33;151.82;;;67.35;;
33690;SDS011;20026;50.058;18.428;2022-11-25T00:16:00;151.55;;;67.38;;
33690;SDS011;20026;50.058;18.428;2022-11-25T00:18:26;148.30;;;66.60;;
33690;SDS011;20026;50.058;18.428;2022-11-25T00:20:52;148.10;;;65.63;;
33690;SDS011;20026;50.058;18.428;2022-11-25T00:23:18;145.95;;;64.72;;
33690;SDS011;20026;50.058;18.428;2022-11-25T00:25:44;147.32;;;67.65;;
33690;SDS011;20026;50.058;18.428;2022-11-25T00:28:10;140.05;;;65.20;;
33690;SDS011;20026;50.058;18.428;2022-11-25T00:30:36;148.30;;;66.00;;
33690;SDS011;20026;50.058;18.428;2022-11-25T00:33:02;146.25;;;66.90;;
33690;SDS011;20026;50.058;18.428;2022-11-25T00:35:28;141.05;;;66.32;;
33690;SDS011;20026;50.058;18.428;2022-11-25T00:37:54;148.27;;;63.75;;
33690;SDS011;20026;50.058;18.428;2022-11-25T00:40:20;140.02;;;62.45;;
33690;SDS011;20026;50.058;18.428;2022-11-25T00:42:46;148.43;;;65.15;;
33690;SDS011;20026;50.058;18.428;2022-11-25T00:45:30;152.85;;;64.82;;
33690;SDS011;20026;50.058;18.428;2022-11-25T00:47:56;146.40;;;67.55;;
33690;SDS011;20026;50.058;18.428;2022-11-25T00:50:22;165.25;;;70.18;;
33690;SDS011;20026;50.058;18.428;2022-11-25T00:52:48;158.88;;;70.68;;
33690;SDS011;20026;50.058;18.428;2022-11-25T00:55:14;147.68;;;67.03;;
33690;SDS011;20026;50.058;18.428;2022-11-25T00:57:40;163.57;;;70.03;;
33690;SDS011;20026;50.058;18.428;2022-11-25T01:00:06;150.82;;;68.10;;
33690;SDS011;20026;50.058;18.428;2022-11-25T01:02:32;163.95;;;74.43;;
33690;SDS011;20026;50.058;18.428;2022-11-25T01:04:58;175.00;;;74.07;;
33690;SDS011;20026;50.058;18.428;2022-11-25T01:07:24;160.88;;;71.35;;
33690;SDS011;20026;50.058;18.428;2022-11-25T01:09:50;161.38;;;69.15;;
33690;SDS011;20026;50.058;18.428;2022-11-25T01:12:16;159.27;;;70.88;;
33690;SDS011;20026;50.058;18.428;2022-11-25T01:14:42;155.55;;;68.88;;
33690;SDS011;20026;50.058;18.428;2022-11-25T01:17:08;164.40;;;72.65;;
33690;SDS011;20026;50.058;18.428;2022-11-25T01:19:34;153.52;;;70.05;;
33690;SDS011;20026;50.058;18.428;2022-11-25T01:22:04;150.70;;;67.95;;
33690;SDS011;20026;50.058;18.428;2022-11-25T01:24:30;144.52;;;65.47;;
33690;SDS011;20026;50.058;18.428;2022-11-25T01:26:56;149.95;;;69.78;;
33690;SDS011;20026;50.058;18.428;2022-11-25T01:29:22;157.80;;;71.85;;
33690;SDS011;20026;50.058;18.428;2022-11-25T01:31:48;139.27;;;68.97;;
33690;SDS011;20026;50.058;18.428;2022-11-25T01:34:16;148.93;;;68.43;;
33690;SDS011;20026;50.058;18.428;2022-11-25T01:36:42;145.95;;;66.80;;
33690;SDS011;20026;50.058;18.428;2022-11-25T01:39:10;163.02;;;73.38;;
33690;SDS011;20026;50.058;18.428;2022-11-25T01:41:38;165.93;;;75.72;;
33690;SDS011;20026;50.058;18.428;2022-11-25T01:44:04;171.43;;;76.72;;
33690;SDS011;20026;50.058;18.428;2022-11-25T01:49:06;155.35;;;70.63;;
33690;SDS011;20026;50.058;18.428;2022-11-25T01:51:53;148.00;;;70.47;;
33690;SDS011;20026;50.058;18.428;2022-11-25T01:54:22;155.80;;;71.65;;
33690;SDS011;20026;50.058;18.428;2022-11-25T01:56:50;161.35;;;75.75;;
33690;SDS011;20026;50.058;18.428;2022-11-25T01:59:18;165.60;;;79.78;;
33690;SDS011;20026;50.058;18.428;2022-11-25T02:01:44;171.45;;;79.63;;
33690;SDS011;20026;50.058;18.428;2022-11-25T02:04:10;160.10;;;77.68;;
33690;SDS011;20026;50.058;18.428;2022-11-25T02:06:38;175.82;;;82.32;;
33690;SDS011;20026;50.058;18.428;2022-11-25T02:09:06;165.00;;;83.07;;
33690;SDS011;20026;50.058;18.428;2022-11-25T02:11:34;171.98;;;84.75;;
33690;SDS011;20026;50.058;18.428;2022-11-25T02:14:01;165.20;;;81.32;;
33690;SDS011;20026;50.058;18.428;2022-11-25T02:16:27;172.90;;;80.05;;
33690;SDS011;20026;50.058;18.428;2022-11-25T02:18:54;165.32;;;79.45;;
33690;SDS011;20026;50.058;18.428;2022-11-25T02:21:25;167.00;;;77.57;;
33690;SDS011;20026;50.058;18.428;2022-11-25T02:23:59;169.02;;;77.70;;
33690;SDS011;20026;50.058;18.428;2022-11-25T02:26:27;166.48;;;75.85;;
33690;SDS011;20026;50.058;18.428;2022-11-25T02:28:53;160.45;;;72.53;;
33690;SDS011;20026;50.058;18.428;2022-11-25T02:31:20;160.73;;;71.13;;
33690;SDS011;20026;50.058;18.428;2022-11-25T02:33:46;152.30;;;69.18;;
33690;SDS011;20026;50.058;18.428;2022-11-25T02:36:13;156.13;;;71.18;;
33690;SDS011;20026;50.058;18.428;2022-11-25T02:38:47;157.13;;;72.05;;
33690;SDS011;20026;50.058;18.428;2022-11-25T02:41:21;167.15;;;73.35;;
33690;SDS011;20026;50.058;18.428;2022-11-25T02:43:49;163.43;;;73.03;;
33690;SDS011;20026;50.058;18.428;2022-11-25T02:46:16;155.30;;;69.57;;
33690;SDS011;20026;50.058;18.428;2022-11-25T02:48:43;159.32;;;70.43;;
33690;SDS011;20026;50.058;18.428;2022-11-25T02:51:11;145.23;;;67.72;;
33690;SDS011;20026;50.058;18.428;2022-11-25T02:53:37;148.93;;;68.40;;
33690;SDS011;20026;50.058;18.428;2022-11-25T02:56:03;153.55;;;71.68;;
33690;SDS011;20026;50.058;18.428;2022-11-25T02:58:30;166.63;;;72.90;;
33690;SDS011;20026;50.058;18.428;2022-11-25T03:00:56;152.82;;;72.43;;
33690;SDS011;20026;50.058;18.428;2022-11-25T03:03:22;147.43;;;64.00;;
33690;SDS011;20026;50.058;18.428;2022-11-25T03:05:48;161.27;;;66.25;;
33690;SDS011;20026;50.058;18.428;2022-11-25T03:08:14;154.65;;;69.20;;
33690;SDS011;20026;50.058;18.428;2022-11-25T03:10:40;152.48;;;71.40;;
33690;SDS011;20026;50.058;18.428;2022-11-25T03:13:06;145.15;;;64.28;;
33690;SDS011;20026;50.058;18.428;2022-11-25T03:15:33;148.98;;;63.83;;
33690;SDS011;20026;50.058;18.428;2022-11-25T03:18:00;147.05;;;64.60;;
33690;SDS011;20026;50.058;18.428;2022-11-25T03:20:26;150.35;;;62.35;;
33690;SDS011;20026;50.058;18.428;2022-11-25T03:22:52;188.88;;;89.47;;
33690;SDS011;20026;50.058;18.428;2022-11-25T03:25:18;143.30;;;66.65;;
33690;SDS011;20026;50.058;18.428;2022-11-25T03:27:44;142.30;;;63.28;;
33690;SDS011;20026;50.058;18.428;2022-11-25T03:30:15;147.18;;;60.85;;
33690;SDS011;20026;50.058;18.428;2022-11-25T03:32:41;139.18;;;60.38;;
33690;SDS011;20026;50.058;18.428;2022-11-25T03:35:08;135.93;;;60.95;;
33690;SDS011;20026;50.058;18.428;2022-11-25T03:37:34;144.38;;;61.60;;
33690;SDS011;20026;50.058;18.428;2022-11-25T03:40:00;157.93;;;67.22;;
33690;SDS011;20026;50.058;18.428;2022-11-25T03:42:27;155.60;;;68.32;;
33690;SDS011;20026;50.058;18.428;2022-11-25T03:44:53;162.57;;;74.55;;
33690;SDS011;20026;50.058;18.428;2022-11-25T03:47:19;157.15;;;71.60;;
33690;SDS011;20026;50.058;18.428;2022-11-25T03:49:45;154.18;;;75.43;;
33690;SDS011;20026;50.058;18.428;2022-11-25T03:52:10;156.10;;;69.95;;
33690;SDS011;20026;50.058;18.428;2022-11-25T03:54:36;156.05;;;73.90;;
33690;SDS011;20026;50.058;18.428;2022-11-25T03:57:02;151.00;;;73.32;;
33690;SDS011;20026;50.058;18.428;2022-11-25T03:59:28;149.88;;;76.35;;
33690;SDS011;20026;50.058;18.428;2022-11-25T04:01:54;150.27;;;70.30;;
33690;SDS011;20026;50.058;18.428;2022-11-25T04:04:20;158.75;;;73.28;;
33690;SDS011;20026;50.058;18.428;2022-11-25T04:06:46;136.43;;;66.80;;
33690;SDS011;20026;50.058;18.428;2022-11-25T04:09:12;160.52;;;65.60;;
33690;SDS011;20026;50.058;18.428;2022-11-25T04:11:38;146.20;;;70.60;;
33690;SDS011;20026;50.058;18.428;2022-11-25T04:14:23;153.60;;;69.82;;
33690;SDS011;20026;50.058;18.428;2022-11-25T04:16:49;152.25;;;71.43;;
33690;SDS011;20026;50.058;18.428;2022-11-25T04:19:15;151.48;;;65.15;;
33690;SDS011;20026;50.058;18.428;2022-11-25T04:21:40;153.30;;;62.85;;
33690;SDS011;20026;50.058;18.428;2022-11-25T04:24:07;152.40;;;63.40;;
33690;SDS011;20026;50.058;18.428;2022-11-25T04:26:33;140.60;;;62.58;;
33690;SDS011;20026;50.058;18.428;2022-11-25T04:28:59;134.98;;;57.08;;
33690;SDS011;20026;50.058;18.428;2022-11-25T04:31:26;138.30;;;58.47;;
33690;SDS011;20026;50.058;18.428;2022-11-25T04:33:52;136.27;;;56.35;;
33690;SDS011;20026;50.058;18.428;2022-11-25T04:36:18;142.63;;;57.78;;
33690;SDS011;20026;50.058;18.428;2022-11-25T04:38:44;133.90;;;53.13;;
33690;SDS011;20026;50.058;18.428;2022-11-25T04:41:10;123.25;;;53.55;;
33690;SDS011;20026;50.058;18.428;2022-11-25T04:43:36;129.55;;;54.80;;
33690;SDS011;20026;50.058;18.428;2022-11-25T04:46:02;135.80;;;56.08;;
33690;SDS011;20026;50.058;18.428;2022-11-25T04:48:28;143.80;;;56.47;;
33690;SDS011;20026;50.058;18.428;2022-11-25T04:50:54;127.85;;;55.38;;
33690;SDS011;20026;50.058;18.428;2022-11-25T04:53:20;123.53;;;56.00;;
33690;SDS011;20026;50.058;18.428;2022-11-25T04:55:46;139.70;;;63.70;;
33690;SDS011;20026;50.058;18.428;2022-11-25T04:58:12;140.77;;;64.75;;
33690;SDS011;20026;50.058;18.428;2022-11-25T05:00:38;135.15;;;61.50;;
33690;SDS011;20026;50.058;18.428;2022-11-25T05:03:05;134.70;;;58.80;;
33690;SDS011;20026;50.058;18.428;2022-11-25T05:05:31;132.27;;;60.90;;
33690;SDS011;20026;50.058;18.428;2022-11-25T05:07:57;136.63;;;58.70;;
33690;SDS011;20026;50.058;18.428;2022-11-25T05:10:23;143.35;;;65.30;;
33690;SDS011;20026;50.058;18.428;2022-11-25T05:12:49;191.57;;;91.95;;
33690;SDS011;20026;50.058;18.428;2022-11-25T05:15:15;206.02;;;94.25;;
33690;SDS011;20026;50.058;18.428;2022-11-25T05:17:41;188.15;;;81.82;;
33690;SDS011;20026;50.058;18.428;2022-11-25T05:20:07;192.93;;;84.03;;
33690;SDS011;20026;50.058;18.428;2022-11-25T05:22:33;165.52;;;74.13;;
33690;SDS011;20026;50.058;18.428;2022-11-25T05:25:00;159.82;;;69.70;;
33690;SDS011;20026;50.058;18.428;2022-11-25T05:27:26;147.73;;;67.03;;
33690;SDS011;20026;50.058;18.428;2022-11-25T05:29:52;253.43;;;99.95;;
33690;SDS011;20026;50.058;18.428;2022-11-25T05:32:18;139.63;;;65.00;;
33690;SDS011;20026;50.058;18.428;2022-11-25T05:34:43;235.68;;;95.03;;
33690;SDS011;20026;50.058;18.428;2022-11-25T05:37:12;157.43;;;71.32;;
33690;SDS011;20026;50.058;18.428;2022-11-25T05:39:38;233.95;;;99.68;;
33690;SDS011;20026;50.058;18.428;2022-11-25T05:42:04;132.27;;;59.72;;
33690;SDS011;20026;50.058;18.428;2022-11-25T05:44:30;139.40;;;60.72;;
33690;SDS011;20026;50.058;18.428;2022-11-25T05:46:56;109.45;;;49.65;;
33690;SDS011;20026;50.058;18.428;2022-11-25T05:49:22;133.43;;;55.88;;
33690;SDS011;20026;50.058;18.428;2022-11-25T05:51:48;107.32;;;49.80;;
33690;SDS011;20026;50.058;18.428;2022-11-25T05:54:14;108.10;;;50.03;;
33690;SDS011;20026;50.058;18.428;2022-11-25T05:56:40;113.93;;;50.67;;
33690;SDS011;20026;50.058;18.428;2022-11-25T05:59:06;136.27;;;68.35;;
33690;SDS011;20026;50.058;18.428;2022-11-25T06:01:32;140.50;;;68.70;;
33690;SDS011;20026;50.058;18.428;2022-11-25T06:03:58;103.05;;;50.10;;
33690;SDS011;20026;50.058;18.428;2022-11-25T06:06:24;110.57;;;49.40;;
33690;SDS011;20026;50.058;18.428;2022-11-25T06:08:50;99.43;;;49.97;;
33690;SDS011;20026;50.058;18.428;2022-11-25T06:11:16;96.00;;;45.45;;
33690;SDS011;20026;50.058;18.428;2022-11-25T06:13:43;90.35;;;44.83;;
33690;SDS011;20026;50.058;18.428;2022-11-25T06:16:10;95.95;;;44.65;;
33690;SDS011;20026;50.058;18.428;2022-11-25T06:18:36;88.05;;;45.22;;
33690;SDS011;20026;50.058;18.428;2022-11-25T06:21:03;103.22;;;48.17;;
33690;SDS011;20026;50.058;18.428;2022-11-25T06:23:30;97.00;;;46.90;;
33690;SDS011;20026;50.058;18.428;2022-11-25T06:26:15;100.82;;;47.53;;
33690;SDS011;20026;50.058;18.428;2022-11-25T06:28:42;101.90;;;47.70;;
33690;SDS011;20026;50.058;18.428;2022-11-25T06:31:12;100.38;;;48.08;;
33690;SDS011;20026;50.058;18.428;2022-11-25T06:33:38;107.32;;;49.25;;
33690;SDS011;20026;50.058;18.428;2022-11-25T06:36:05;107.88;;;52.25;;
33690;SDS011;20026;50.058;18.428;2022-11-25T06:38:33;105.60;;;48.75;;
33690;SDS011;20026;50.058;18.428;2022-11-25T06:41:00;109.50;;;49.20;;
33690;SDS011;20026;50.058;18.428;2022-11-25T06:43:26;99.32;;;46.78;;
33690;SDS011;20026;50.058;18.428;2022-11-25T06:45:52;101.15;;;46.45;;
33690;SDS011;20026;50.058;18.428;2022-11-25T06:48:18;95.85;;;44.53;;
33690;SDS011;20026;50.058;18.428;2022-11-25T06:50:44;104.80;;;48.53;;
33690;SDS011;20026;50.058;18.428;2022-11-25T06:53:10;92.50;;;43.63;;
33690;SDS011;20026;50.058;18.428;2022-11-25T06:55:35;104.13;;;47.10;;
33690;SDS011;20026;50.058;18.428;2022-11-25T06:58:01;98.65;;;46.13;;
33690;SDS011;20026;50.058;18.428;2022-11-25T07:00:27;117.32;;;51.90;;
33690;SDS011;20026;50.058;18.428;2022-11-25T07:02:53;106.20;;;47.00;;
33690;SDS011;20026;50.058;18.428;2022-11-25T07:05:19;109.35;;;48.75;;
33690;SDS011;20026;50.058;18.428;2022-11-25T07:07:45;85.63;;;41.08;;
33690;SDS011;20026;50.058;18.428;2022-11-25T07:10:11;93.05;;;43.53;;
33690;SDS011;20026;50.058;18.428;2022-11-25T07:12:37;96.47;;;43.13;;
33690;SDS011;20026;50.058;18.428;2022-11-25T07:15:03;100.53;;;43.85;;
33690;SDS011;20026;50.058;18.428;2022-11-25T07:17:29;101.10;;;45.05;;
33690;SDS011;20026;50.058;18.428;2022-11-25T07:19:55;98.15;;;45.28;;
33690;SDS011;20026;50.058;18.428;2022-11-25T07:22:21;95.13;;;42.92;;
33690;SDS011;20026;50.058;18.428;2022-11-25T07:24:47;98.70;;;45.72;;
33690;SDS011;20026;50.058;18.428;2022-11-25T07:27:13;101.55;;;46.47;;
33690;SDS011;20026;50.058;18.428;2022-11-25T07:29:39;99.30;;;47.90;;
33690;SDS011;20026;50.058;18.428;2022-11-25T07:32:05;108.38;;;50.97;;
33690;SDS011;20026;50.058;18.428;2022-11-25T07:34:31;99.70;;;44.75;;
33690;SDS011;20026;50.058;18.428;2022-11-25T07:36:57;93.95;;;43.55;;
33690;SDS011;20026;50.058;18.428;2022-11-25T07:39:22;91.10;;;43.97;;
33690;SDS011;20026;50.058;18.428;2022-11-25T07:41:49;100.32;;;46.40;;
33690;SDS011;20026;50.058;18.428;2022-11-25T07:44:15;99.47;;;47.28;;
33690;SDS011;20026;50.058;18.428;2022-11-25T07:46:42;107.43;;;47.60;;
33690;SDS011;20026;50.058;18.428;2022-11-25T07:49:13;100.55;;;48.85;;
33690;SDS011;20026;50.058;18.428;2022-11-25T07:51:40;105.03;;;48.78;;
33690;SDS011;20026;50.058;18.428;2022-11-25T07:54:07;99.13;;;48.35;;
33690;SDS011;20026;50.058;18.428;2022-11-25T07:56:34;105.43;;;51.13;;
33690;SDS011;20026;50.058;18.428;2022-11-25T07:59:00;103.40;;;50.00;;
33690;SDS011;20026;50.058;18.428;2022-11-25T08:01:26;101.18;;;48.55;;
33690;SDS011;20026;50.058;18.428;2022-11-25T08:03:52;100.47;;;48.40;;
33690;SDS011;20026;50.058;18.428;2022-11-25T08:06:19;105.47;;;49.92;;
33690;SDS011;20026;50.058;18.428;2022-11-25T08:08:45;92.82;;;47.65;;
33690;SDS011;20026;50.058;18.428;2022-11-25T08:11:13;94.85;;;46.47;;
33690;SDS011;20026;50.058;18.428;2022-11-25T08:13:40;89.10;;;44.22;;
33690;SDS011;20026;50.058;18.428;2022-11-25T08:16:06;94.50;;;46.83;;
33690;SDS011;20026;50.058;18.428;2022-11-25T08:18:32;96.68;;;44.80;;
33690;SDS011;20026;50.058;18.428;2022-11-25T08:20:59;122.10;;;50.03;;
33690;SDS011;20026;50.058;18.428;2022-11-25T08:23:25;105.95;;;51.25;;
33690;SDS011;20026;50.058;18.428;2022-11-25T08:25:51;103.55;;;51.38;;
33690;SDS011;20026;50.058;18.428;2022-11-25T08:28:17;105.03;;;48.20;;
33690;SDS011;20026;50.058;18.428;2022-11-25T08:30:43;113.60;;;57.60;;
33690;SDS011;20026;50.058;18.428;2022-11-25T08:33:09;96.20;;;46.88;;
33690;SDS011;20026;50.058;18.428;2022-11-25T08:35:35;83.53;;;43.08;;
33690;SDS011;20026;50.058;18.428;2022-11-25T08:38:05;77.30;;;41.55;;
33690;SDS011;20026;50.058;18.428;2022-11-25T08:40:32;85.25;;;40.75;;
33690;SDS011;20026;50.058;18.428;2022-11-25T08:42:59;87.93;;;43.05;;
33690;SDS011;20026;50.058;18.428;2022-11-25T08:45:25;86.15;;;47.33;;
33690;SDS011;20026;50.058;18.428;2022-11-25T08:47:51;85.97;;;48.88;;
33690;SDS011;20026;50.058;18.428;2022-11-25T08:50:17;73.50;;;38.50;;
33690;SDS011;20026;50.058;18.428;2022-11-25T08:52:43;69.13;;;36.30;;
33690;SDS011;20026;50.058;18.428;2022-11-25T08:55:08;78.85;;;45.70;;
33690;SDS011;20026;50.058;18.428;2022-11-25T08:57:34;70.95;;;36.80;;
33690;SDS011;20026;50.058;18.428;2022-11-25T09:00:01;71.30;;;38.90;;
33690;SDS011;20026;50.058;18.428;2022-11-25T09:02:27;84.40;;;43.75;;
33690;SDS011;20026;50.058;18.428;2022-11-25T09:04:53;82.60;;;42.53;;
33690;SDS011;20026;50.058;18.428;2022-11-25T09:07:19;71.07;;;39.95;;
33690;SDS011;20026;50.058;18.428;2022-11-25T09:09:45;66.15;;;35.92;;
33690;SDS011;20026;50.058;18.428;2022-11-25T09:12:11;71.10;;;38.40;;
33690;SDS011;20026;50.058;18.428;2022-11-25T09:14:37;69.95;;;39.35;;
33690;SDS011;20026;50.058;18.428;2022-11-25T09:17:07;66.30;;;34.75;;
33690;SDS011;20026;50.058;18.428;2022-11-25T09:19:33;131.27;;;54.75;;
33690;SDS011;20026;50.058;18.428;2022-11-25T09:21:59;176.02;;;71.88;;
33690;SDS011;20026;50.058;18.428;2022-11-25T09:24:25;115.30;;;52.33;;
33690;SDS011;20026;50.058;18.428;2022-11-25T09:26:50;64.97;;;34.13;;
33690;SDS011;20026;50.058;18.428;2022-11-25T09:29:17;116.80;;;57.72;;
33690;SDS011;20026;50.058;18.428;2022-11-25T09:31:43;74.43;;;39.78;;
33690;SDS011;20026;50.058;18.428;2022-11-25T09:34:09;136.05;;;64.88;;
33690;SDS011;20026;50.058;18.428;2022-11-25T09:36:35;126.65;;;61.08;;
33690;SDS011;20026;50.058;18.428;2022-11-25T09:39:00;134.80;;;71.65;;
33690;SDS011;20026;50.058;18.428;2022-11-25T09:41:37;119.55;;;63.40;;
33690;SDS011;20026;50.058;18.428;2022-11-25T09:44:32;118.43;;;61.33;;
33690;SDS011;20026;50.058;18.428;2022-11-25T09:50:01;98.93;;;53.78;;
33690;SDS011;20026;50.058;18.428;2022-11-25T09:55:23;97.80;;;51.22;;
33690;SDS011;20026;50.058;18.428;2022-11-25T09:57:59;100.35;;;54.70;;
33690;SDS011;20026;50.058;18.428;2022-11-25T10:00:31;133.65;;;68.78;;
33690;SDS011;20026;50.058;18.428;2022-11-25T10:05:48;103.28;;;54.15;;
33690;SDS011;20026;50.058;18.428;2022-11-25T10:08:19;170.68;;;81.82;;
33690;SDS011;20026;50.058;18.428;2022-11-25T10:13:16;163.15;;;78.78;;
33690;SDS011;20026;50.058;18.428;2022-11-25T10:15:44;167.55;;;91.30;;
33690;SDS011;20026;50.058;18.428;2022-11-25T10:18:12;144.77;;;71.22;;
33690;SDS011;20026;50.058;18.428;2022-11-25T10:20:42;153.65;;;70.13;;
33690;SDS011;20026;50.058;18.428;2022-11-25T10:23:14;151.25;;;70.53;;
33690;SDS011;20026;50.058;18.428;2022-11-25T10:25:43;185.75;;;87.25;;
33690;SDS011;20026;50.058;18.428;2022-11-25T10:28:20;204.15;;;95.88;;
33690;SDS011;20026;50.058;18.428;2022-11-25T10:33:17;143.57;;;70.28;;
33690;SDS011;20026;50.058;18.428;2022-11-25T10:35:48;84.55;;;40.97;;
33690;SDS011;20026;50.058;18.428;2022-11-25T10:38:21;165.13;;;71.50;;
33690;SDS011;20026;50.058;18.428;2022-11-25T10:40:49;213.45;;;91.85;;
33690;SDS011;20026;50.058;18.428;2022-11-25T10:43:17;141.90;;;67.90;;
33690;SDS011;20026;50.058;18.428;2022-11-25T10:45:46;159.18;;;71.40;;
33690;SDS011;20026;50.058;18.428;2022-11-25T10:53:37;79.60;;;40.83;;
33690;SDS011;20026;50.058;18.428;2022-11-25T10:56:04;75.63;;;38.63;;
33690;SDS011;20026;50.058;18.428;2022-11-25T10:58:35;70.35;;;36.67;;
33690;SDS011;20026;50.058;18.428;2022-11-25T11:03:30;88.30;;;54.90;;
33690;SDS011;20026;50.058;18.428;2022-11-25T11:05:56;91.60;;;54.05;;
33690;SDS011;20026;50.058;18.428;2022-11-25T11:08:24;104.32;;;53.13;;
33690;SDS011;20026;50.058;18.428;2022-11-25T11:13:39;62.75;;;31.83;;
33690;SDS011;20026;50.058;18.428;2022-11-25T11:16:19;64.10;;;33.33;;
33690;SDS011;20026;50.058;18.428;2022-11-25T11:18:47;68.40;;;35.70;;
33690;SDS011;20026;50.058;18.428;2022-11-25T11:21:28;63.88;;;34.67;;
33690;SDS011;20026;50.058;18.428;2022-11-25T11:23:54;68.95;;;36.13;;
33690;SDS011;20026;50.058;18.428;2022-11-25T11:26:28;74.10;;;36.38;;
33690;SDS011;20026;50.058;18.428;2022-11-25T11:29:01;71.22;;;40.13;;
33690;SDS011;20026;50.058;18.428;2022-11-25T11:31:32;83.72;;;45.33;;
33690;SDS011;20026;50.058;18.428;2022-11-25T11:39:12;86.72;;;46.22;;
33690;SDS011;20026;50.058;18.428;2022-11-25T11:41:45;107.93;;;56.45;;
33690;SDS011;20026;50.058;18.428;2022-11-25T11:44:17;124.90;;;66.37;;
33690;SDS011;20026;50.058;18.428;2022-11-25T11:46:58;106.13;;;54.58;;
33690;SDS011;20026;50.058;18.428;2022-11-25T11:54:23;75.88;;;47.35;;
33690;SDS011;20026;50.058;18.428;2022-11-25T11:57:05;62.92;;;36.25;;
33690;SDS011;20026;50.058;18.428;2022-11-25T12:04:49;82.93;;;41.95;;
33690;SDS011;20026;50.058;18.428;2022-11-25T12:09:58;86.65;;;44.58;;
33690;SDS011;20026;50.058;18.428;2022-11-25T12:12:37;73.65;;;38.50;;
33690;SDS011;20026;50.058;18.428;2022-11-25T12:15:08;80.18;;;40.05;;
33690;SDS011;20026;50.058;18.428;2022-11-25T12:17:42;90.28;;;47.25;;
33690;SDS011;20026;50.058;18.428;2022-11-25T12:22:58;54.30;;;30.77;;
33690;SDS011;20026;50.058;18.428;2022-11-25T12:25:28;71.90;;;34.17;;
33690;SDS011;20026;50.058;18.428;2022-11-25T12:27:58;65.00;;;32.10;;
33690;SDS011;20026;50.058;18.428;2022-11-25T12:30:37;61.80;;;31.88;;
33690;SDS011;20026;50.058;18.428;2022-11-25T12:38:20;59.50;;;30.85;;
33690;SDS011;20026;50.058;18.428;2022-11-25T12:40:57;51.70;;;29.45;;
33690;SDS011;20026;50.058;18.428;2022-11-25T12:43:32;53.05;;;29.33;;
33690;SDS011;20026;50.058;18.428;2022-11-25T12:46:14;70.43;;;39.15;;
33690;SDS011;20026;50.058;18.428;2022-11-25T12:48:42;70.10;;;40.50;;
33690;SDS011;20026;50.058;18.428;2022-11-25T12:53:53;56.30;;;32.87;;
33690;SDS011;20026;50.058;18.428;2022-11-25T12:56:34;64.38;;;31.27;;
33690;SDS011;20026;50.058;18.428;2022-11-25T13:02:14;90.88;;;52.35;;
33690;SDS011;20026;50.058;18.428;2022-11-25T13:04:48;101.07;;;55.60;;
33690;SDS011;20026;50.058;18.428;2022-11-25T13:07:24;58.38;;;33.83;;
33690;SDS011;20026;50.058;18.428;2022-11-25T13:12:25;39.42;;;22.63;;
33690;SDS011;20026;50.058;18.428;2022-11-25T13:17:20;45.30;;;25.77;;
33690;SDS011;20026;50.058;18.428;2022-11-25T13:19:47;50.33;;;27.48;;
33690;SDS011;20026;50.058;18.428;2022-11-25T13:24:45;69.40;;;38.50;;
33690;SDS011;20026;50.058;18.428;2022-11-25T13:29:55;50.28;;;27.73;;
33690;SDS011;20026;50.058;18.428;2022-11-25T13:32:37;47.13;;;26.77;;
33690;SDS011;20026;50.058;18.428;2022-11-25T13:37:53;45.60;;;25.63;;
33690;SDS011;20026;50.058;18.428;2022-11-25T13:42:50;49.53;;;28.33;;
33690;SDS011;20026;50.058;18.428;2022-11-25T13:48:11;47.85;;;27.27;;
33690;SDS011;20026;50.058;18.428;2022-11-25T13:50:39;59.55;;;32.45;;
33690;SDS011;20026;50.058;18.428;2022-11-25T13:53:06;74.50;;;40.55;;
33690;SDS011;20026;50.058;18.428;2022-11-25T13:55:34;68.82;;;39.17;;
33690;SDS011;20026;50.058;18.428;2022-11-25T13:58:13;57.17;;;34.25;;
33690;SDS011;20026;50.058;18.428;2022-11-25T14:00:42;58.95;;;32.75;;
33690;SDS011;20026;50.058;18.428;2022-11-25T14:06:04;69.53;;;38.67;;
33690;SDS011;20026;50.058;18.428;2022-11-25T14:24:13;93.65;;;43.13;;
33690;SDS011;20026;50.058;18.428;2022-11-25T14:26:41;147.35;;;60.22;;
33690;SDS011;20026;50.058;18.428;2022-11-25T14:29:14;103.90;;;54.88;;
33690;SDS011;20026;50.058;18.428;2022-11-25T14:31:49;164.80;;;79.88;;
33690;SDS011;20026;50.058;18.428;2022-11-25T14:36:49;98.72;;;59.17;;
33690;SDS011;20026;50.058;18.428;2022-11-25T14:39:21;501.08;;;251.65;;
33690;SDS011;20026;50.058;18.428;2022-11-25T14:41:58;1132.85;;;599.28;;
33690;SDS011;20026;50.058;18.428;2022-11-25T14:44:27;1001.08;;;592.70;;
33690;SDS011;20026;50.058;18.428;2022-11-25T14:46:55;955.20;;;618.40;;
33690;SDS011;20026;50.058;18.428;2022-11-25T14:49:39;788.40;;;592.35;;
33690;SDS011;20026;50.058;18.428;2022-11-25T14:52:05;488.00;;;409.45;;
33690;SDS011;20026;50.058;18.428;2022-11-25T14:54:31;200.50;;;162.65;;
33690;SDS011;20026;50.058;18.428;2022-11-25T14:56:57;128.63;;;101.40;;
33690;SDS011;20026;50.058;18.428;2022-11-25T14:59:23;83.22;;;60.55;;
33690;SDS011;20026;50.058;18.428;2022-11-25T15:01:52;74.50;;;53.97;;
33690;SDS011;20026;50.058;18.428;2022-11-25T15:04:22;71.35;;;38.97;;
33690;SDS011;20026;50.058;18.428;2022-11-25T15:06:50;85.25;;;45.00;;
33690;SDS011;20026;50.058;18.428;2022-11-25T15:11:42;81.03;;;41.03;;
33690;SDS011;20026;50.058;18.428;2022-11-25T15:14:20;71.10;;;39.13;;
33690;SDS011;20026;50.058;18.428;2022-11-25T15:16:47;89.50;;;50.92;;
33690;SDS011;20026;50.058;18.428;2022-11-25T15:19:14;86.10;;;44.50;;
33690;SDS011;20026;50.058;18.428;2022-11-25T15:21:40;88.72;;;49.58;;
33690;SDS011;20026;50.058;18.428;2022-11-25T15:24:20;81.20;;;43.15;;
33690;SDS011;20026;50.058;18.428;2022-11-25T15:29:13;73.40;;;38.80;;
33690;SDS011;20026;50.058;18.428;2022-11-25T15:31:39;96.28;;;55.03;;
33690;SDS011;20026;50.058;18.428;2022-11-25T15:34:09;98.68;;;52.72;;
33690;SDS011;20026;50.058;18.428;2022-11-25T15:36:36;85.68;;;48.53;;
33690;SDS011;20026;50.058;18.428;2022-11-25T15:39:15;201.38;;;109.30;;
33690;SDS011;20026;50.058;18.428;2022-11-25T15:41:42;89.55;;;49.15;;
33690;SDS011;20026;50.058;18.428;2022-11-25T15:44:15;80.88;;;53.30;;
33690;SDS011;20026;50.058;18.428;2022-11-25T15:46:47;92.43;;;61.80;;
33690;SDS011;20026;50.058;18.428;2022-11-25T15:49:14;91.88;;;51.38;;